sensor_id;sensor_type;location;lat;lon;timestamp;temperature;humidity
52849;DHT22;38714;53.180;5.812;2023-03-01T00:01:25;1.60;99.90
52849;DHT22;38714;53.180;5.812;2023-03-01T00:03:51;1.60;99.90
52849;DHT22;38714;53.180;5.812;2023-03-01T00:06:18;1.60;99.90
52849;DHT22;38714;53.180;5.812;2023-03-01T00:08:43;1.50;99.90
52849;DHT22;38714;53.180;5.812;2023-03-01T00:13:41;1.50;99.90
52849;DHT22;38714;53.180;5.812;2023-03-01T00:16:13;1.50;99.90
52849;DHT22;38714;53.180;5.812;2023-03-01T00:18:39;1.50;99.90
52849;DHT22;38714;53.180;5.812;2023-03-01T00:21:05;1.50;99.90
52849;DHT22;38714;53.180;5.812;2023-03-01T00:23:31;1.40;99.90
52849;DHT22;38714;53.180;5.812;2023-03-01T00:25:57;1.40;99.90
52849;DHT22;38714;53.180;5.812;2023-03-01T00:28:23;1.40;99.90
52849;DHT22;38714;53.180;5.812;2023-03-01T00:30:49;1.40;99.90
52849;DHT22;38714;53.180;5.812;2023-03-01T00:33:14;1.40;99.90
52849;DHT22;38714;53.180;5.812;2023-03-01T00:35:40;1.40;99.90
52849;DHT22;38714;53.180;5.812;2023-03-01T00:38:06;1.40;99.90
52849;DHT22;38714;53.180;5.812;2023-03-01T00:40:33;1.40;99.90
52849;DHT22;38714;53.180;5.812;2023-03-01T00:42:59;1.40;99.90
52849;DHT22;38714;53.180;5.812;2023-03-01T00:45:25;1.40;99.90
52849;DHT22;38714;53.180;5.812;2023-03-01T00:47:51;1.40;99.90
52849;DHT22;38714;53.180;5.812;2023-03-01T00:50:18;1.40;99.90
52849;DHT22;38714;53.180;5.812;2023-03-01T00:52:44;1.40;99.90
52849;DHT22;38714;53.180;5.812;2023-03-01T00:55:10;1.40;99.90
52849;DHT22;38714;53.180;5.812;2023-03-01T00:57:36;1.30;99.90
52849;DHT22;38714;53.180;5.812;2023-03-01T01:00:03;1.20;99.90
52849;DHT22;38714;53.180;5.812;2023-03-01T01:02:29;1.10;99.90
52849;DHT22;38714;53.180;5.812;2023-03-01T01:04:55;1.00;99.90
52849;DHT22;38714;53.180;5.812;2023-03-01T01:07:20;1.00;99.90
52849;DHT22;38714;53.180;5.812;2023-03-01T01:09:46;0.90;99.90
52849;DHT22;38714;53.180;5.812;2023-03-01T01:12:12;0.80;99.90
52849;DHT22;38714;53.180;5.812;2023-03-01T01:14:37;0.80;99.90
52849;DHT22;38714;53.180;5.812;2023-03-01T01:17:03;0.80;99.90
52849;DHT22;38714;53.180;5.812;2023-03-01T01:19:29;0.70;99.90
52849;DHT22;38714;53.180;5.812;2023-03-01T01:21:55;0.70;99.90
52849;DHT22;38714;53.180;5.812;2023-03-01T01:24:21;0.70;99.90
52849;DHT22;38714;53.180;5.812;2023-03-01T01:26:46;0.70;99.90
52849;DHT22;38714;53.180;5.812;2023-03-01T01:29:12;0.70;99.90
52849;DHT22;38714;53.180;5.812;2023-03-01T01:31:40;0.70;99.90
52849;DHT22;38714;53.180;5.812;2023-03-01T01:34:07;0.70;99.90
52849;DHT22;38714;53.180;5.812;2023-03-01T01:36:34;0.70;99.90
52849;DHT22;38714;53.180;5.812;2023-03-01T01:39:00;0.70;99.90
52849;DHT22;38714;53.180;5.812;2023-03-01T01:41:27;0.70;99.90
52849;DHT22;38714;53.180;5.812;2023-03-01T01:44:16;0.60;99.90
52849;DHT22;38714;53.180;5.812;2023-03-01T01:46:50;0.60;99.90
52849;DHT22;38714;53.180;5.812;2023-03-01T01:51:45;0.50;99.90
52849;DHT22;38714;53.180;5.812;2023-03-01T01:54:35;0.40;99.90
52849;DHT22;38714;53.180;5.812;2023-03-01T01:57:06;0.40;99.90
52849;DHT22;38714;53.180;5.812;2023-03-01T01:59:36;0.40;99.90
52849;DHT22;38714;53.180;5.812;2023-03-01T02:02:03;0.40;99.90
52849;DHT22;38714;53.180;5.812;2023-03-01T02:04:31;0.40;99.90
52849;DHT22;38714;53.180;5.812;2023-03-01T02:07:03;0.40;99.90
52849;DHT22;38714;53.180;5.812;2023-03-01T02:09:32;0.40;99.90
52849;DHT22;38714;53.180;5.812;2023-03-01T02:11:59;0.30;99.90
52849;DHT22;38714;53.180;5.812;2023-03-01T02:14:25;0.30;99.90
52849;DHT22;38714;53.180;5.812;2023-03-01T02:16:52;0.30;99.90
52849;DHT22;38714;53.180;5.812;2023-03-01T02:22:12;0.30;99.90
52849;DHT22;38714;53.180;5.812;2023-03-01T02:27:17;0.30;99.90
52849;DHT22;38714;53.180;5.812;2023-03-01T02:29:48;0.30;99.90
52849;DHT22;38714;53.180;5.812;2023-03-01T02:32:15;0.20;99.90
52849;DHT22;38714;53.180;5.812;2023-03-01T02:34:41;0.20;99.90
52849;DHT22;38714;53.180;5.812;2023-03-01T02:37:12;0.20;99.90
52849;DHT22;38714;53.180;5.812;2023-03-01T02:39:44;0.20;99.90
52849;DHT22;38714;53.180;5.812;2023-03-01T02:42:15;0.20;99.90
52849;DHT22;38714;53.180;5.812;2023-03-01T02:44:42;0.20;99.90
52849;DHT22;38714;53.180;5.812;2023-03-01T02:47:07;0.20;99.90
52849;DHT22;38714;53.180;5.812;2023-03-01T02:49:35;0.20;99.90
52849;DHT22;38714;53.180;5.812;2023-03-01T02:57:28;0.20;99.90
52849;DHT22;38714;53.180;5.812;2023-03-01T02:59:56;0.20;99.90
52849;DHT22;38714;53.180;5.812;2023-03-01T03:02:25;0.20;99.90
52849;DHT22;38714;53.180;5.812;2023-03-01T03:05:15;0.10;99.90
52849;DHT22;38714;53.180;5.812;2023-03-01T03:07:43;0.10;99.90
52849;DHT22;38714;53.180;5.812;2023-03-01T03:10:15;0.20;99.90
52849;DHT22;38714;53.180;5.812;2023-03-01T03:12:41;0.10;99.90
52849;DHT22;38714;53.180;5.812;2023-03-01T03:15:09;0.10;99.90
52849;DHT22;38714;53.180;5.812;2023-03-01T03:17:36;0.10;99.90
52849;DHT22;38714;53.180;5.812;2023-03-01T03:20:03;0.10;99.90
52849;DHT22;38714;53.180;5.812;2023-03-01T03:22:30;0.10;99.90
52849;DHT22;38714;53.180;5.812;2023-03-01T03:24:56;0.00;99.90
52849;DHT22;38714;53.180;5.812;2023-03-01T03:27:21;0.00;99.90
52849;DHT22;38714;53.180;5.812;2023-03-01T03:29:47;-0.10;99.90
52849;DHT22;38714;53.180;5.812;2023-03-01T03:32:12;-0.10;99.90
52849;DHT22;38714;53.180;5.812;2023-03-01T03:34:38;-0.10;99.90
52849;DHT22;38714;53.180;5.812;2023-03-01T03:37:04;-0.10;99.90
52849;DHT22;38714;53.180;5.812;2023-03-01T03:39:49;-0.10;99.90
52849;DHT22;38714;53.180;5.812;2023-03-01T03:42:15;-0.20;99.90
52849;DHT22;38714;53.180;5.812;2023-03-01T03:44:40;-0.20;99.90
52849;DHT22;38714;53.180;5.812;2023-03-01T03:47:06;-0.30;99.90
52849;DHT22;38714;53.180;5.812;2023-03-01T03:49:31;-0.30;99.90
52849;DHT22;38714;53.180;5.812;2023-03-01T03:51:58;-0.30;99.90
52849;DHT22;38714;53.180;5.812;2023-03-01T03:54:24;-0.30;99.90
52849;DHT22;38714;53.180;5.812;2023-03-01T03:56:49;-0.30;99.90
52849;DHT22;38714;53.180;5.812;2023-03-01T03:59:15;-0.30;99.90
52849;DHT22;38714;53.180;5.812;2023-03-01T04:01:41;-0.30;99.90
52849;DHT22;38714;53.180;5.812;2023-03-01T04:04:06;-0.40;99.90
52849;DHT22;38714;53.180;5.812;2023-03-01T04:06:33;-0.30;99.90
52849;DHT22;38714;53.180;5.812;2023-03-01T04:08:58;-0.30;99.90
52849;DHT22;38714;53.180;5.812;2023-03-01T04:11:27;-0.30;99.90
52849;DHT22;38714;53.180;5.812;2023-03-01T04:13:55;-0.30;99.90
52849;DHT22;38714;53.180;5.812;2023-03-01T04:16:22;-0.30;99.90
52849;DHT22;38714;53.180;5.812;2023-03-01T04:18:48;-0.20;99.90
52849;DHT22;38714;53.180;5.812;2023-03-01T04:21:14;-0.20;99.90
52849;DHT22;38714;53.180;5.812;2023-03-01T04:23:40;-0.30;99.90
52849;DHT22;38714;53.180;5.812;2023-03-01T04:26:09;-0.30;99.90
52849;DHT22;38714;53.180;5.812;2023-03-01T04:28:37;-0.30;99.90
52849;DHT22;38714;53.180;5.812;2023-03-01T04:31:15;-0.30;99.90
52849;DHT22;38714;53.180;5.812;2023-03-01T04:33:46;-0.30;99.90
52849;DHT22;38714;53.180;5.812;2023-03-01T04:36:14;-0.30;99.90
52849;DHT22;38714;53.180;5.812;2023-03-01T04:38:40;-0.30;99.90
52849;DHT22;38714;53.180;5.812;2023-03-01T04:41:09;-0.30;99.90
52849;DHT22;38714;53.180;5.812;2023-03-01T04:43:35;-0.30;99.90
52849;DHT22;38714;53.180;5.812;2023-03-01T04:46:03;-0.30;99.90
52849;DHT22;38714;53.180;5.812;2023-03-01T04:48:30;-0.30;99.90
52849;DHT22;38714;53.180;5.812;2023-03-01T04:50:56;-0.30;99.90
52849;DHT22;38714;53.180;5.812;2023-03-01T04:53:21;-0.30;99.90
52849;DHT22;38714;53.180;5.812;2023-03-01T04:55:47;-0.30;99.90
52849;DHT22;38714;53.180;5.812;2023-03-01T04:58:12;-0.30;99.90
52849;DHT22;38714;53.180;5.812;2023-03-01T05:00:38;-0.30;99.90
52849;DHT22;38714;53.180;5.812;2023-03-01T05:03:03;-0.20;99.90
52849;DHT22;38714;53.180;5.812;2023-03-01T05:05:33;-0.30;99.90
52849;DHT22;38714;53.180;5.812;2023-03-01T05:08:02;-0.30;99.90
52849;DHT22;38714;53.180;5.812;2023-03-01T05:10:29;-0.30;99.90
52849;DHT22;38714;53.180;5.812;2023-03-01T05:12:57;-0.40;99.90
52849;DHT22;38714;53.180;5.812;2023-03-01T05:15:24;-0.40;99.90
52849;DHT22;38714;53.180;5.812;2023-03-01T05:17:51;-0.30;99.90
52849;DHT22;38714;53.180;5.812;2023-03-01T05:20:18;-0.40;99.90
52849;DHT22;38714;53.180;5.812;2023-03-01T05:22:48;-0.40;99.90
52849;DHT22;38714;53.180;5.812;2023-03-01T05:25:14;-0.40;99.90
52849;DHT22;38714;53.180;5.812;2023-03-01T05:27:39;-0.40;99.90
52849;DHT22;38714;53.180;5.812;2023-03-01T05:30:06;-0.40;99.90
52849;DHT22;38714;53.180;5.812;2023-03-01T05:32:43;-0.50;99.90
52849;DHT22;38714;53.180;5.812;2023-03-01T05:35:11;-0.40;99.90
52849;DHT22;38714;53.180;5.812;2023-03-01T05:37:39;-0.50;99.90
52849;DHT22;38714;53.180;5.812;2023-03-01T05:40:06;-0.50;99.90
52849;DHT22;38714;53.180;5.812;2023-03-01T05:42:41;-0.50;99.90
52849;DHT22;38714;53.180;5.812;2023-03-01T05:45:08;-0.50;99.90
52849;DHT22;38714;53.180;5.812;2023-03-01T05:47:35;-0.50;99.90
52849;DHT22;38714;53.180;5.812;2023-03-01T05:50:01;-0.60;99.90
52849;DHT22;38714;53.180;5.812;2023-03-01T05:52:27;-0.60;99.90
52849;DHT22;38714;53.180;5.812;2023-03-01T05:54:52;-0.60;99.90
52849;DHT22;38714;53.180;5.812;2023-03-01T05:57:18;-0.60;99.90
52849;DHT22;38714;53.180;5.812;2023-03-01T05:59:43;-0.60;99.90
52849;DHT22;38714;53.180;5.812;2023-03-01T06:02:09;-0.60;99.90
52849;DHT22;38714;53.180;5.812;2023-03-01T06:04:34;-0.60;99.90
52849;DHT22;38714;53.180;5.812;2023-03-01T06:07:00;-0.60;99.90
52849;DHT22;38714;53.180;5.812;2023-03-01T06:09:25;-0.60;99.90
52849;DHT22;38714;53.180;5.812;2023-03-01T06:11:51;-0.60;99.90
52849;DHT22;38714;53.180;5.812;2023-03-01T06:14:17;-0.60;99.90
52849;DHT22;38714;53.180;5.812;2023-03-01T06:16:42;-0.60;99.90
52849;DHT22;38714;53.180;5.812;2023-03-01T06:19:08;-0.60;99.90
52849;DHT22;38714;53.180;5.812;2023-03-01T06:21:33;-0.60;99.90
52849;DHT22;38714;53.180;5.812;2023-03-01T06:23:59;-0.60;99.90
52849;DHT22;38714;53.180;5.812;2023-03-01T06:26:25;-0.60;99.90
52849;DHT22;38714;53.180;5.812;2023-03-01T06:28:50;-0.60;99.90
52849;DHT22;38714;53.180;5.812;2023-03-01T06:31:16;-0.60;99.90
52849;DHT22;38714;53.180;5.812;2023-03-01T06:33:41;-0.60;99.90
52849;DHT22;38714;53.180;5.812;2023-03-01T06:36:07;-0.60;99.90
52849;DHT22;38714;53.180;5.812;2023-03-01T06:38:33;-0.60;99.90
52849;DHT22;38714;53.180;5.812;2023-03-01T06:40:59;-0.70;99.90
52849;DHT22;38714;53.180;5.812;2023-03-01T06:43:24;-0.70;99.90
52849;DHT22;38714;53.180;5.812;2023-03-01T06:45:50;-0.70;99.90
52849;DHT22;38714;53.180;5.812;2023-03-01T06:48:16;-0.70;99.90
52849;DHT22;38714;53.180;5.812;2023-03-01T06:50:42;-0.70;99.90
52849;DHT22;38714;53.180;5.812;2023-03-01T06:53:08;-0.70;99.90
52849;DHT22;38714;53.180;5.812;2023-03-01T06:55:33;-0.80;99.90
52849;DHT22;38714;53.180;5.812;2023-03-01T06:58:00;-0.80;99.90
52849;DHT22;38714;53.180;5.812;2023-03-01T07:00:27;-0.70;99.90
52849;DHT22;38714;53.180;5.812;2023-03-01T07:02:53;-0.70;99.90
52849;DHT22;38714;53.180;5.812;2023-03-01T07:05:19;-0.80;99.90
52849;DHT22;38714;53.180;5.812;2023-03-01T07:07:45;-0.80;99.90
52849;DHT22;38714;53.180;5.812;2023-03-01T07:10:10;-0.80;99.90
52849;DHT22;38714;53.180;5.812;2023-03-01T07:12:36;-0.80;99.90
52849;DHT22;38714;53.180;5.812;2023-03-01T07:15:03;-0.80;99.90
52849;DHT22;38714;53.180;5.812;2023-03-01T07:17:29;-0.80;99.90
52849;DHT22;38714;53.180;5.812;2023-03-01T07:19:54;-0.80;99.90
52849;DHT22;38714;53.180;5.812;2023-03-01T07:22:20;-0.80;99.90
52849;DHT22;38714;53.180;5.812;2023-03-01T07:24:46;-0.80;99.90
52849;DHT22;38714;53.180;5.812;2023-03-01T07:27:11;-0.80;99.90
52849;DHT22;38714;53.180;5.812;2023-03-01T07:29:37;-0.80;99.90
52849;DHT22;38714;53.180;5.812;2023-03-01T07:32:04;-0.80;99.90
52849;DHT22;38714;53.180;5.812;2023-03-01T07:34:30;-0.80;99.90
52849;DHT22;38714;53.180;5.812;2023-03-01T07:36:55;-0.80;99.90
52849;DHT22;38714;53.180;5.812;2023-03-01T07:39:21;-0.80;99.90
52849;DHT22;38714;53.180;5.812;2023-03-01T07:41:48;-0.80;99.90
52849;DHT22;38714;53.180;5.812;2023-03-01T07:44:14;-0.80;99.90
52849;DHT22;38714;53.180;5.812;2023-03-01T07:46:41;-0.80;99.90
52849;DHT22;38714;53.180;5.812;2023-03-01T07:49:07;-0.70;99.90
52849;DHT22;38714;53.180;5.812;2023-03-01T07:51:32;-0.70;99.90
52849;DHT22;38714;53.180;5.812;2023-03-01T07:53:58;-0.60;99.90
52849;DHT22;38714;53.180;5.812;2023-03-01T07:56:24;-0.60;99.90
52849;DHT22;38714;53.180;5.812;2023-03-01T07:58:49;-0.60;99.90
52849;DHT22;38714;53.180;5.812;2023-03-01T08:01:17;-0.60;99.90
52849;DHT22;38714;53.180;5.812;2023-03-01T08:03:43;-0.50;99.90
52849;DHT22;38714;53.180;5.812;2023-03-01T08:06:10;-0.50;99.90
52849;DHT22;38714;53.180;5.812;2023-03-01T08:08:36;-0.40;99.90
52849;DHT22;38714;53.180;5.812;2023-03-01T08:11:04;-0.50;99.90
52849;DHT22;38714;53.180;5.812;2023-03-01T08:13:30;-0.40;99.90
52849;DHT22;38714;53.180;5.812;2023-03-01T08:16:26;-0.40;99.90
52849;DHT22;38714;53.180;5.812;2023-03-01T08:18:51;-0.30;99.90
52849;DHT22;38714;53.180;5.812;2023-03-01T08:26:28;-0.10;99.90
52849;DHT22;38714;53.180;5.812;2023-03-01T08:28:53;0.00;99.90
52849;DHT22;38714;53.180;5.812;2023-03-01T08:31:25;0.00;99.90
52849;DHT22;38714;53.180;5.812;2023-03-01T08:33:54;0.10;99.90
52849;DHT22;38714;53.180;5.812;2023-03-01T08:36:24;0.20;99.90
52849;DHT22;38714;53.180;5.812;2023-03-01T08:38:50;0.20;99.90
52849;DHT22;38714;53.180;5.812;2023-03-01T08:41:16;0.30;99.90
52849;DHT22;38714;53.180;5.812;2023-03-01T08:43:42;0.30;99.90
52849;DHT22;38714;53.180;5.812;2023-03-01T08:46:08;0.30;99.90
52849;DHT22;38714;53.180;5.812;2023-03-01T08:48:34;0.40;99.90
52849;DHT22;38714;53.180;5.812;2023-03-01T08:51:14;0.50;99.90
52849;DHT22;38714;53.180;5.812;2023-03-01T08:53:40;0.50;99.90
52849;DHT22;38714;53.180;5.812;2023-03-01T08:56:07;0.60;99.90
52849;DHT22;38714;53.180;5.812;2023-03-01T08:58:33;0.60;99.90
52849;DHT22;38714;53.180;5.812;2023-03-01T09:00:59;0.70;99.90
52849;DHT22;38714;53.180;5.812;2023-03-01T09:03:26;0.70;99.90
52849;DHT22;38714;53.180;5.812;2023-03-01T09:05:53;0.80;99.90
52849;DHT22;38714;53.180;5.812;2023-03-01T09:08:21;0.80;99.90
52849;DHT22;38714;53.180;5.812;2023-03-01T09:10:47;0.90;99.90
52849;DHT22;38714;53.180;5.812;2023-03-01T09:13:12;0.90;99.90
52849;DHT22;38714;53.180;5.812;2023-03-01T09:15:38;1.00;99.90
52849;DHT22;38714;53.180;5.812;2023-03-01T09:18:04;1.00;99.90
52849;DHT22;38714;53.180;5.812;2023-03-01T09:20:31;1.00;99.90
52849;DHT22;38714;53.180;5.812;2023-03-01T09:22:57;1.10;99.90
52849;DHT22;38714;53.180;5.812;2023-03-01T09:25:23;1.10;99.90
52849;DHT22;38714;53.180;5.812;2023-03-01T09:27:52;1.20;99.90
52849;DHT22;38714;53.180;5.812;2023-03-01T09:30:18;1.30;99.90
52849;DHT22;38714;53.180;5.812;2023-03-01T09:32:44;1.20;99.90
52849;DHT22;38714;53.180;5.812;2023-03-01T09:35:10;1.30;99.90
52849;DHT22;38714;53.180;5.812;2023-03-01T10:01:23;1.70;99.90
52849;DHT22;38714;53.180;5.812;2023-03-01T10:06:35;1.80;99.90
52849;DHT22;38714;53.180;5.812;2023-03-01T10:09:05;1.90;99.90
52849;DHT22;38714;53.180;5.812;2023-03-01T10:11:37;1.90;99.90
52849;DHT22;38714;53.180;5.812;2023-03-01T10:14:33;1.90;99.90
52849;DHT22;38714;53.180;5.812;2023-03-01T10:17:08;2.00;99.90
52849;DHT22;38714;53.180;5.812;2023-03-01T10:19:43;2.00;99.90
52849;DHT22;38714;53.180;5.812;2023-03-01T10:22:16;2.10;99.90
52849;DHT22;38714;53.180;5.812;2023-03-01T10:24:44;2.10;99.90
52849;DHT22;38714;53.180;5.812;2023-03-01T10:27:24;2.10;99.90
52849;DHT22;38714;53.180;5.812;2023-03-01T10:32:53;2.30;99.90
52849;DHT22;38714;53.180;5.812;2023-03-01T10:35:24;2.30;99.90
52849;DHT22;38714;53.180;5.812;2023-03-01T10:40:23;2.40;99.90
52849;DHT22;38714;53.180;5.812;2023-03-01T10:42:49;2.40;99.90
52849;DHT22;38714;53.180;5.812;2023-03-01T10:48:04;2.60;99.90
52849;DHT22;38714;53.180;5.812;2023-03-01T10:50:31;2.70;99.90
52849;DHT22;38714;53.180;5.812;2023-03-01T10:53:03;2.70;99.90
52849;DHT22;38714;53.180;5.812;2023-03-01T10:55:39;2.80;99.90
52849;DHT22;38714;53.180;5.812;2023-03-01T10:58:21;2.90;99.90
52849;DHT22;38714;53.180;5.812;2023-03-01T11:00:57;2.90;99.90
52849;DHT22;38714;53.180;5.812;2023-03-01T11:03:24;3.00;99.90
52849;DHT22;38714;53.180;5.812;2023-03-01T11:06:22;3.00;99.90
52849;DHT22;38714;53.180;5.812;2023-03-01T11:08:50;3.10;99.90
52849;DHT22;38714;53.180;5.812;2023-03-01T11:11:33;3.10;99.90
52849;DHT22;38714;53.180;5.812;2023-03-01T11:16:34;3.10;99.90
52849;DHT22;38714;53.180;5.812;2023-03-01T11:19:04;3.20;99.90
52849;DHT22;38714;53.180;5.812;2023-03-01T11:24:14;3.30;99.90
52849;DHT22;38714;53.180;5.812;2023-03-01T11:26:43;3.30;99.90
52849;DHT22;38714;53.180;5.812;2023-03-01T11:29:21;3.40;99.90
52849;DHT22;38714;53.180;5.812;2023-03-01T11:31:51;3.40;99.90
52849;DHT22;38714;53.180;5.812;2023-03-01T11:34:28;3.50;99.90
52849;DHT22;38714;53.180;5.812;2023-03-01T11:36:59;3.50;99.90
52849;DHT22;38714;53.180;5.812;2023-03-01T11:39:33;3.50;99.90
52849;DHT22;38714;53.180;5.812;2023-03-01T11:42:27;3.60;99.90
52849;DHT22;38714;53.180;5.812;2023-03-01T11:44:52;3.60;99.90
52849;DHT22;38714;53.180;5.812;2023-03-01T12:01:07;3.80;99.90
52849;DHT22;38714;53.180;5.812;2023-03-01T12:10:06;4.00;99.90
52849;DHT22;38714;53.180;5.812;2023-03-01T12:15:39;4.10;99.90
52849;DHT22;38714;53.180;5.812;2023-03-01T12:51:38;4.50;99.90
52849;DHT22;38714;53.180;5.812;2023-03-01T12:54:31;4.50;99.90
52849;DHT22;38714;53.180;5.812;2023-03-01T12:57:06;4.50;99.90
52849;DHT22;38714;53.180;5.812;2023-03-01T12:59:39;4.60;99.90
52849;DHT22;38714;53.180;5.812;2023-03-01T13:02:45;4.60;99.90
52849;DHT22;38714;53.180;5.812;2023-03-01T13:08:33;4.70;99.90
52849;DHT22;38714;53.180;5.812;2023-03-01T13:11:06;4.70;99.90
52849;DHT22;38714;53.180;5.812;2023-03-01T13:13:37;4.80;99.90
52849;DHT22;38714;53.180;5.812;2023-03-01T13:19:10;4.90;99.90
52849;DHT22;38714;53.180;5.812;2023-03-01T13:21:38;5.00;99.90
52849;DHT22;38714;53.180;5.812;2023-03-01T13:24:04;5.00;99.90
52849;DHT22;38714;53.180;5.812;2023-03-01T13:26:29;5.00;99.90
52849;DHT22;38714;53.180;5.812;2023-03-01T13:28:57;5.00;99.90
52849;DHT22;38714;53.180;5.812;2023-03-01T13:33:51;5.10;99.90
52849;DHT22;38714;53.180;5.812;2023-03-01T13:39:00;5.10;99.90
52849;DHT22;38714;53.180;5.812;2023-03-01T13:49:59;5.10;99.90
52849;DHT22;38714;53.180;5.812;2023-03-01T13:52:41;5.10;99.90
52849;DHT22;38714;53.180;5.812;2023-03-01T13:57:43;5.20;99.90
52849;DHT22;38714;53.180;5.812;2023-03-01T14:00:31;5.20;99.90
52849;DHT22;38714;53.180;5.812;2023-03-01T14:05:31;5.20;99.90
52849;DHT22;38714;53.180;5.812;2023-03-01T14:07:57;5.30;99.90
52849;DHT22;38714;53.180;5.812;2023-03-01T14:10:27;5.30;99.90
52849;DHT22;38714;53.180;5.812;2023-03-01T14:13:21;5.30;99.90
52849;DHT22;38714;53.180;5.812;2023-03-01T14:19:17;5.30;99.90
52849;DHT22;38714;53.180;5.812;2023-03-01T14:21:45;5.40;99.90
52849;DHT22;38714;53.180;5.812;2023-03-01T14:24:20;5.40;99.90
52849;DHT22;38714;53.180;5.812;2023-03-01T14:26:47;5.40;99.90
52849;DHT22;38714;53.180;5.812;2023-03-01T14:29:35;5.40;99.90
52849;DHT22;38714;53.180;5.812;2023-03-01T14:32:22;5.40;99.90
52849;DHT22;38714;53.180;5.812;2023-03-01T14:34:50;5.40;99.90
52849;DHT22;38714;53.180;5.812;2023-03-01T14:37:18;5.40;99.90
52849;DHT22;38714;53.180;5.812;2023-03-01T14:39:44;5.40;99.90
52849;DHT22;38714;53.180;5.812;2023-03-01T14:42:09;5.40;99.90
52849;DHT22;38714;53.180;5.812;2023-03-01T14:44:36;5.40;99.90
52849;DHT22;38714;53.180;5.812;2023-03-01T14:47:03;5.40;99.90
52849;DHT22;38714;53.180;5.812;2023-03-01T14:49:31;5.50;99.90
52849;DHT22;38714;53.180;5.812;2023-03-01T14:52:07;5.50;99.90
52849;DHT22;38714;53.180;5.812;2023-03-01T14:54:47;5.50;99.90
52849;DHT22;38714;53.180;5.812;2023-03-01T14:57:26;5.50;99.90
52849;DHT22;38714;53.180;5.812;2023-03-01T15:00:03;5.50;99.90
52849;DHT22;38714;53.180;5.812;2023-03-01T15:02:32;5.50;99.90
52849;DHT22;38714;53.180;5.812;2023-03-01T15:05:00;5.50;99.90
52849;DHT22;38714;53.180;5.812;2023-03-01T15:07:31;5.50;99.90
52849;DHT22;38714;53.180;5.812;2023-03-01T15:09:59;5.60;99.90
52849;DHT22;38714;53.180;5.812;2023-03-01T15:14:55;5.60;99.90
52849;DHT22;38714;53.180;5.812;2023-03-01T15:17:37;5.50;99.90
52849;DHT22;38714;53.180;5.812;2023-03-01T15:20:16;5.50;99.90
52849;DHT22;38714;53.180;5.812;2023-03-01T15:22:45;5.50;99.90
52849;DHT22;38714;53.180;5.812;2023-03-01T15:25:18;5.50;99.90
52849;DHT22;38714;53.180;5.812;2023-03-01T15:27:48;5.60;99.90
52849;DHT22;38714;53.180;5.812;2023-03-01T15:30:21;5.60;99.90
52849;DHT22;38714;53.180;5.812;2023-03-01T15:32:47;5.60;99.90
52849;DHT22;38714;53.180;5.812;2023-03-01T15:35:39;5.60;99.90
52849;DHT22;38714;53.180;5.812;2023-03-01T15:40:49;5.60;99.90
52849;DHT22;38714;53.180;5.812;2023-03-01T15:43:45;5.50;99.90
52849;DHT22;38714;53.180;5.812;2023-03-01T15:46:23;5.50;99.90
52849;DHT22;38714;53.180;5.812;2023-03-01T15:48:53;5.50;99.90
52849;DHT22;38714;53.180;5.812;2023-03-01T15:51:32;5.50;99.90
52849;DHT22;38714;53.180;5.812;2023-03-01T15:54:01;5.50;99.90
52849;DHT22;38714;53.180;5.812;2023-03-01T15:56:28;5.50;99.90
52849;DHT22;38714;53.180;5.812;2023-03-01T15:58:58;5.50;99.90
52849;DHT22;38714;53.180;5.812;2023-03-01T16:01:24;5.50;99.90
52849;DHT22;38714;53.180;5.812;2023-03-01T16:03:51;5.50;99.90
52849;DHT22;38714;53.180;5.812;2023-03-01T16:06:16;5.50;99.90
52849;DHT22;38714;53.180;5.812;2023-03-01T16:08:42;5.50;99.90
52849;DHT22;38714;53.180;5.812;2023-03-01T16:11:19;5.50;99.90
52849;DHT22;38714;53.180;5.812;2023-03-01T16:13:45;5.40;99.90
52849;DHT22;38714;53.180;5.812;2023-03-01T16:16:13;5.40;99.90
52849;DHT22;38714;53.180;5.812;2023-03-01T16:18:45;5.50;99.90
52849;DHT22;38714;53.180;5.812;2023-03-01T16:21:16;5.50;99.90
52849;DHT22;38714;53.180;5.812;2023-03-01T16:23:44;5.40;99.90
52849;DHT22;38714;53.180;5.812;2023-03-01T16:26:10;5.40;99.90
52849;DHT22;38714;53.180;5.812;2023-03-01T16:28:36;5.40;99.90
52849;DHT22;38714;53.180;5.812;2023-03-01T16:31:01;5.40;99.90
52849;DHT22;38714;53.180;5.812;2023-03-01T16:33:27;5.40;99.90
52849;DHT22;38714;53.180;5.812;2023-03-01T16:35:53;5.30;99.90
52849;DHT22;38714;53.180;5.812;2023-03-01T16:38:18;5.30;99.90
52849;DHT22;38714;53.180;5.812;2023-03-01T16:40:49;5.30;99.90
52849;DHT22;38714;53.180;5.812;2023-03-01T16:43:14;5.30;99.90
52849;DHT22;38714;53.180;5.812;2023-03-01T16:45:40;5.30;99.90
52849;DHT22;38714;53.180;5.812;2023-03-01T16:48:13;5.30;99.90
52849;DHT22;38714;53.180;5.812;2023-03-01T16:50:38;5.20;99.90
52849;DHT22;38714;53.180;5.812;2023-03-01T16:53:04;5.20;99.90
52849;DHT22;38714;53.180;5.812;2023-03-01T16:55:30;5.20;99.90
52849;DHT22;38714;53.180;5.812;2023-03-01T16:57:56;5.10;99.90
52849;DHT22;38714;53.180;5.812;2023-03-01T17:00:22;5.10;99.90
52849;DHT22;38714;53.180;5.812;2023-03-01T17:02:48;5.10;99.90
52849;DHT22;38714;53.180;5.812;2023-03-01T17:05:14;5.10;99.90
52849;DHT22;38714;53.180;5.812;2023-03-01T17:07:40;5.10;99.90
52849;DHT22;38714;53.180;5.812;2023-03-01T17:10:07;5.00;99.90
52849;DHT22;38714;53.180;5.812;2023-03-01T17:12:33;5.00;99.90
52849;DHT22;38714;53.180;5.812;2023-03-01T17:14:59;5.00;99.90
52849;DHT22;38714;53.180;5.812;2023-03-01T17:17:25;4.90;99.90
52849;DHT22;38714;53.180;5.812;2023-03-01T17:19:51;4.90;99.90
52849;DHT22;38714;53.180;5.812;2023-03-01T17:22:17;4.90;99.90
52849;DHT22;38714;53.180;5.812;2023-03-01T17:24:43;4.80;99.90
52849;DHT22;38714;53.180;5.812;2023-03-01T17:27:10;4.80;99.90
52849;DHT22;38714;53.180;5.812;2023-03-01T17:29:37;4.80;99.90
52849;DHT22;38714;53.180;5.812;2023-03-01T17:32:04;4.80;99.90
52849;DHT22;38714;53.180;5.812;2023-03-01T17:34:31;4.80;99.90
52849;DHT22;38714;53.180;5.812;2023-03-01T17:36:57;4.70;99.90
52849;DHT22;38714;53.180;5.812;2023-03-01T17:39:23;4.70;99.90
52849;DHT22;38714;53.180;5.812;2023-03-01T17:41:55;4.70;99.90
52849;DHT22;38714;53.180;5.812;2023-03-01T17:44:21;4.60;99.90
52849;DHT22;38714;53.180;5.812;2023-03-01T17:46:46;4.60;99.90
52849;DHT22;38714;53.180;5.812;2023-03-01T17:49:12;4.60;99.90
52849;DHT22;38714;53.180;5.812;2023-03-01T17:51:38;4.50;99.90
52849;DHT22;38714;53.180;5.812;2023-03-01T17:54:04;4.50;99.90
52849;DHT22;38714;53.180;5.812;2023-03-01T17:56:30;4.50;99.90
52849;DHT22;38714;53.180;5.812;2023-03-01T17:58:58;4.50;99.90
52849;DHT22;38714;53.180;5.812;2023-03-01T18:01:25;4.50;99.90
52849;DHT22;38714;53.180;5.812;2023-03-01T18:03:51;4.40;99.90
52849;DHT22;38714;53.180;5.812;2023-03-01T18:06:20;4.40;99.90
52849;DHT22;38714;53.180;5.812;2023-03-01T18:08:47;4.40;99.90
52849;DHT22;38714;53.180;5.812;2023-03-01T18:11:16;4.40;99.90
52849;DHT22;38714;53.180;5.812;2023-03-01T18:13:41;4.40;99.90
52849;DHT22;38714;53.180;5.812;2023-03-01T18:16:09;4.30;99.90
52849;DHT22;38714;53.180;5.812;2023-03-01T18:18:35;4.30;99.90
52849;DHT22;38714;53.180;5.812;2023-03-01T18:21:02;4.30;99.90
52849;DHT22;38714;53.180;5.812;2023-03-01T18:23:29;4.30;99.90